Time;durP1;ratioP1;P1;durP2;ratioP2;P2;SDS_P1;SDS_P2;PMS_P1;PMS_P2;Temp;Humidity;BMP_temperature;BMP_pressure;BME280_temperature;BME280_humidity;BME280_pressure;Samples;Min_cycle;Max_cycle;Signal;HPM_P1;HPM_P2
2023/11/24 00:02:19;;;;;;;14.70;5.20;;;11.90;99.90;;;;;;4979633;28;20474;-41
2023/11/24 00:04:45;;;;;;;14.60;5.13;;;11.90;99.90;;;;;;4978460;28;20468;-41
2023/11/24 00:07:11;;;;;;;10.00;5.30;;;11.90;99.90;;;;;;4979739;28;21205;-43
2023/11/24 00:09:38;;;;;;;11.50;4.60;;;11.90;99.90;;;;;;4987386;28;20856;-41
2023/11/24 00:12:04;;;;;;;10.55;4.85;;;11.80;99.90;;;;;;4984818;28;20535;-40
2023/11/24 00:14:33;;;;;;;13.27;4.67;;;11.90;99.90;;;;;;4985510;28;20256;-41
2023/11/24 00:17:00;;;;;;;12.70;4.50;;;11.90;99.90;;;;;;4988316;28;21122;-41
2023/11/24 00:19:26;;;;;;;7.97;4.40;;;11.90;99.90;;;;;;4978832;28;20532;-40
2023/11/24 00:21:52;;;;;;;9.93;4.23;;;11.90;99.90;;;;;;4980517;28;21194;-42
2023/11/24 00:24:18;;;;;;;11.63;4.77;;;11.80;99.90;;;;;;4979903;28;20471;-39
2023/11/24 00:26:46;;;;;;;14.37;5.10;;;11.80;99.90;;;;;;4984868;28;20481;-40
2023/11/24 00:29:13;;;;;;;12.70;4.50;;;11.80;99.90;;;;;;4958457;28;20689;-44
2023/11/24 00:31:39;;;;;;;11.87;4.70;;;11.80;99.90;;;;;;4981131;28;20439;-38
2023/11/24 00:34:07;;;;;;;7.93;4.30;;;11.80;99.90;;;;;;4977873;28;20479;-42
2023/11/24 00:36:34;;;;;;;13.47;4.77;;;11.80;99.90;;;;;;4962738;28;20531;-40
2023/11/24 00:39:00;;;;;;;19.77;4.53;;;11.80;99.90;;;;;;4962193;28;20431;-41
2023/11/24 00:41:29;;;;;;;11.43;4.00;;;11.80;99.90;;;;;;4982761;28;20959;-42
2023/11/24 00:44:01;;;;;;;7.30;3.83;;;11.70;99.90;;;;;;4981108;28;20477;-42
2023/11/24 00:46:29;;;;;;;12.40;4.30;;;11.70;99.90;;;;;;4983660;28;20885;-39
2023/11/24 00:48:58;;;;;;;10.93;4.53;;;11.80;99.90;;;;;;4986348;28;20437;-40
2023/11/24 00:51:27;;;;;;;14.30;3.47;;;11.80;99.90;;;;;;4980352;28;20434;-41
2023/11/24 00:53:54;;;;;;;9.70;3.57;;;11.80;99.90;;;;;;4983698;28;20304;-41
2023/11/24 00:56:20;;;;;;;13.50;4.30;;;11.80;99.90;;;;;;4977889;28;20448;-41
2023/11/24 00:58:50;;;;;;;10.20;4.00;;;11.80;99.90;;;;;;4977520;28;20440;-42
2023/11/24 01:01:17;;;;;;;9.87;4.07;;;11.80;99.90;;;;;;4977394;28;20499;-42
2023/11/24 01:03:46;;;;;;;12.20;3.87;;;11.80;99.90;;;;;;4979018;28;20469;-40
2023/11/24 01:06:14;;;;;;;11.15;4.03;;;11.80;99.90;;;;;;4980272;28;20953;-40
2023/11/24 01:08:43;;;;;;;10.90;4.13;;;11.80;99.90;;;;;;4961304;28;20209;-41
2023/11/24 01:11:09;;;;;;;8.98;3.20;;;11.80;99.90;;;;;;4985157;28;20218;-39
2023/11/24 01:13:37;;;;;;;12.80;3.67;;;11.80;99.90;;;;;;4981406;28;20220;-39
2023/11/24 01:16:04;;;;;;;6.73;2.83;;;11.90;99.90;;;;;;4964624;28;20800;-41
2023/11/24 01:18:36;;;;;;;8.70;3.53;;;11.80;99.90;;;;;;4962050;28;21023;-42
2023/11/24 01:21:02;;;;;;;9.80;3.13;;;11.80;99.90;;;;;;4967022;28;20432;-42
2023/11/24 01:23:28;;;;;;;8.40;2.90;;;11.70;99.90;;;;;;4978927;28;20580;-42
2023/11/24 01:25:59;;;;;;;7.77;3.10;;;11.70;99.90;;;;;;4979083;28;20999;-41
2023/11/24 01:28:26;;;;;;;7.32;2.90;;;11.70;99.90;;;;;;4945711;28;20437;-39
2023/11/24 01:30:52;;;;;;;8.47;3.60;;;11.70;99.90;;;;;;4987849;28;20745;-41
2023/11/24 01:33:18;;;;;;;7.33;3.23;;;11.70;99.90;;;;;;4977840;28;20453;-38
2023/11/24 01:35:44;;;;;;;8.60;3.07;;;11.70;99.90;;;;;;4960659;28;20204;-39
2023/11/24 01:38:12;;;;;;;7.60;3.20;;;11.70;99.90;;;;;;4981518;28;20425;-41
2023/11/24 01:40:41;;;;;;;12.37;3.50;;;11.70;99.90;;;;;;4948464;28;20455;-41
2023/11/24 01:43:09;;;;;;;7.73;2.97;;;11.70;99.90;;;;;;4976896;28;20473;-41
2023/11/24 01:45:35;;;;;;;8.10;3.10;;;11.70;99.90;;;;;;4977879;28;20685;-40
2023/11/24 01:48:01;;;;;;;8.97;3.30;;;11.70;99.90;;;;;;4981498;28;20430;-40
2023/11/24 01:50:31;;;;;;;9.77;3.07;;;11.70;99.90;;;;;;4976278;28;20526;-41
2023/11/24 01:52:57;;;;;;;6.70;2.80;;;11.60;99.90;;;;;;4978225;28;20519;-42
2023/11/24 01:55:26;;;;;;;9.27;3.10;;;11.60;99.90;;;;;;4963415;28;20473;-42
2023/11/24 01:57:53;;;;;;;6.10;2.97;;;11.60;99.90;;;;;;4980404;28;20597;-42
2023/11/24 02:00:19;;;;;;;5.67;2.80;;;11.60;99.90;;;;;;4956554;28;20432;-42
2023/11/24 02:02:46;;;;;;;11.52;2.90;;;11.60;99.90;;;;;;4985239;28;20454;-41
2023/11/24 02:05:12;;;;;;;5.78;2.40;;;11.60;99.90;;;;;;4951302;28;20223;-41
2023/11/24 02:07:39;;;;;;;11.07;3.13;;;11.70;99.90;;;;;;4959943;28;20186;-41
2023/11/24 02:10:06;;;;;;;7.90;2.67;;;11.70;99.90;;;;;;4967657;28;20192;-41
2023/11/24 02:12:32;;;;;;;7.47;2.88;;;11.80;99.90;;;;;;4974432;28;20449;-40
2023/11/24 02:14:58;;;;;;;10.53;3.50;;;11.80;99.90;;;;;;4949005;28;20715;-42
2023/11/24 02:17:24;;;;;;;7.40;3.17;;;11.80;99.90;;;;;;4973988;28;20457;-42
2023/11/24 02:19:51;;;;;;;7.63;3.07;;;11.80;99.90;;;;;;4965782;28;21159;-41
2023/11/24 02:22:21;;;;;;;7.85;3.10;;;11.70;99.90;;;;;;4979236;28;20491;-40
2023/11/24 02:24:47;;;;;;;11.27;3.10;;;11.70;99.90;;;;;;4969465;28;20216;-42
2023/11/24 02:27:18;;;;;;;7.95;2.83;;;11.70;99.90;;;;;;4977163;28;20441;-40
2023/11/24 02:29:46;;;;;;;8.23;3.00;;;11.70;99.90;;;;;;4960313;28;20287;-40
2023/11/24 02:32:13;;;;;;;7.60;3.20;;;11.70;99.90;;;;;;4976787;28;21059;-41
2023/11/24 02:34:39;;;;;;;6.93;2.70;;;11.70;99.90;;;;;;4983942;28;20841;-42
2023/11/24 02:37:06;;;;;;;8.60;2.83;;;11.70;99.90;;;;;;4960471;28;20315;-41
2023/11/24 02:39:32;;;;;;;13.25;3.05;;;11.70;99.90;;;;;;4974440;28;20199;-41
2023/11/24 02:41:59;;;;;;;6.50;3.40;;;11.80;99.90;;;;;;4957517;28;20231;-42
2023/11/24 02:44:27;;;;;;;10.90;2.97;;;11.80;99.90;;;;;;4956835;28;20476;-41
2023/11/24 02:46:55;;;;;;;7.70;3.17;;;11.70;99.90;;;;;;4959648;28;20444;-41
2023/11/24 02:49:23;;;;;;;6.97;2.63;;;11.70;99.90;;;;;;4977853;28;20495;-42
2023/11/24 02:51:49;;;;;;;12.23;3.00;;;11.70;99.90;;;;;;4985078;28;20434;-40
2023/11/24 02:54:15;;;;;;;9.40;2.87;;;11.60;99.90;;;;;;4963979;28;20459;-42
2023/11/24 02:56:41;;;;;;;8.90;2.97;;;11.60;99.90;;;;;;4988470;28;20459;-41
2023/11/24 02:59:13;;;;;;;6.82;2.75;;;11.60;99.90;;;;;;4987979;28;20525;-42
2023/11/24 03:01:41;;;;;;;8.73;2.80;;;11.60;99.90;;;;;;4982050;28;20201;-39
2023/11/24 03:04:07;;;;;;;5.90;2.70;;;11.60;99.90;;;;;;4988585;28;20533;-42
2023/11/24 03:06:39;;;;;;;9.37;3.00;;;11.60;99.90;;;;;;4981961;28;20430;-41
2023/11/24 03:09:09;;;;;;;6.13;2.90;;;11.70;99.90;;;;;;4992634;28;20503;-42
2023/11/24 03:11:38;;;;;;;5.50;2.33;;;11.60;99.90;;;;;;4990204;28;20245;-38
2023/11/24 03:14:07;;;;;;;5.10;2.40;;;11.70;99.90;;;;;;4979512;28;20464;-40
2023/11/24 03:16:36;;;;;;;8.67;3.00;;;11.60;99.90;;;;;;4978457;28;21059;-42
2023/11/24 03:19:04;;;;;;;5.53;2.20;;;11.60;99.90;;;;;;4980250;28;20445;-41
2023/11/24 03:21:32;;;;;;;6.47;2.60;;;11.60;99.90;;;;;;4949674;28;20623;-42
2023/11/24 03:23:58;;;;;;;6.38;2.28;;;11.60;99.90;;;;;;4962036;28;20573;-40
2023/11/24 03:26:30;;;;;;;8.17;2.73;;;11.60;99.90;;;;;;4993171;28;20208;-41
2023/11/24 03:28:57;;;;;;;8.05;2.50;;;11.60;99.90;;;;;;4981488;28;21236;-42
2023/11/24 03:31:23;;;;;;;8.50;2.80;;;11.60;99.90;;;;;;4985587;28;20188;-40
2023/11/24 03:33:50;;;;;;;8.60;3.03;;;11.60;99.90;;;;;;4982795;28;20587;-40
2023/11/24 03:36:16;;;;;;;4.90;2.40;;;11.60;99.90;;;;;;4980892;28;20439;-41
2023/11/24 03:38:45;;;;;;;6.93;2.50;;;11.60;99.90;;;;;;4982849;28;20188;-40
2023/11/24 03:41:11;;;;;;;9.03;2.73;;;11.60;99.90;;;;;;4964750;28;20460;-39
2023/11/24 03:43:40;;;;;;;12.40;2.70;;;11.60;99.90;;;;;;5012358;22;20500;-27
2023/11/24 03:46:11;;;;;;;6.63;2.80;;;11.50;99.90;;;;;;4993771;28;20453;-27
2023/11/24 03:48:39;;;;;;;9.93;2.37;;;11.50;99.90;;;;;;4987194;28;20446;-27
2023/11/24 03:51:06;;;;;;;6.77;2.53;;;11.50;99.90;;;;;;5009725;28;20493;-27
2023/11/24 03:53:32;;;;;;;4.47;2.00;;;11.50;99.90;;;;;;5023048;28;20447;-27
2023/11/24 03:55:59;;;;;;;5.37;2.60;;;11.40;99.90;;;;;;4998533;28;20448;-28
2023/11/24 03:58:27;;;;;;;8.53;3.37;;;11.40;99.90;;;;;;4984464;28;20503;-29
2023/11/24 04:00:53;;;;;;;6.53;2.57;;;11.40;99.90;;;;;;4963142;28;20431;-28
2023/11/24 04:03:19;;;;;;;7.13;2.90;;;11.40;99.90;;;;;;4981101;28;20477;-27
2023/11/24 04:05:47;;;;;;;7.10;2.57;;;11.40;99.90;;;;;;4985202;28;20426;-27
2023/11/24 04:08:15;;;;;;;6.63;2.20;;;11.40;99.90;;;;;;4988067;28;20539;-26
2023/11/24 04:10:41;;;;;;;5.20;2.33;;;11.40;99.90;;;;;;5006969;28;20470;-26
2023/11/24 04:13:08;;;;;;;6.40;2.60;;;11.40;99.90;;;;;;4985350;28;20440;-27
2023/11/24 04:15:37;;;;;;;5.97;2.37;;;11.30;99.90;;;;;;4995866;28;20447;-27
2023/11/24 04:18:03;;;;;;;6.37;2.40;;;11.30;99.90;;;;;;4985362;28;20425;-28
2023/11/24 04:20:29;;;;;;;6.00;2.60;;;11.40;99.90;;;;;;4967262;28;20449;-26
2023/11/24 04:22:55;;;;;;;5.20;2.58;;;11.30;99.90;;;;;;5002913;28;20433;-26
2023/11/24 04:25:23;;;;;;;4.93;2.53;;;11.30;99.90;;;;;;5016817;28;20180;-27
2023/11/24 04:27:49;;;;;;;4.77;2.20;;;11.40;99.90;;;;;;4984805;28;20588;-27
2023/11/24 04:30:27;;;;;;;5.70;2.30;;;11.50;99.90;;;;;;4987076;28;20414;-25
2023/11/24 04:32:53;;;;;;;7.17;3.13;;;11.40;99.90;;;;;;4984792;28;20246;-25
2023/11/24 04:35:24;;;;;;;3.72;2.25;;;11.50;99.90;;;;;;4985943;28;20798;-26
2023/11/24 04:37:53;;;;;;;6.93;2.53;;;11.50;99.90;;;;;;4998042;28;20590;-27
2023/11/24 04:40:19;;;;;;;3.17;2.30;;;11.50;99.90;;;;;;5021883;28;20477;-26
2023/11/24 04:42:52;;;;;;;5.57;2.33;;;11.50;99.90;;;;;;5015114;28;21063;-27
2023/11/24 04:45:22;;;;;;;6.90;2.57;;;11.40;99.90;;;;;;4982644;28;20470;-28
2023/11/24 04:47:51;;;;;;;8.73;2.13;;;11.40;99.90;;;;;;5002637;28;20412;-28
2023/11/24 04:50:17;;;;;;;6.33;2.23;;;11.40;99.90;;;;;;4999101;28;20452;-28
2023/11/24 04:52:43;;;;;;;5.47;2.47;;;11.40;99.90;;;;;;5021805;28;20435;-27
2023/11/24 04:55:09;;;;;;;6.87;2.60;;;11.40;99.90;;;;;;4992453;28;20428;-28
2023/11/24 04:57:35;;;;;;;5.40;2.10;;;11.30;99.90;;;;;;4984191;28;20432;-28
2023/11/24 05:00:08;;;;;;;5.00;2.40;;;11.30;99.90;;;;;;5001452;28;20449;-25
2023/11/24 05:02:34;;;;;;;5.75;2.13;;;11.30;99.90;;;;;;5000435;28;21440;-26
2023/11/24 05:05:05;;;;;;;4.40;1.97;;;11.30;99.90;;;;;;5015769;28;20237;-26
2023/11/24 05:07:31;;;;;;;3.90;2.23;;;11.30;99.90;;;;;;5008597;28;20488;-26
2023/11/24 05:09:57;;;;;;;4.30;2.10;;;11.30;99.90;;;;;;4984702;28;20424;-25
2023/11/24 05:12:24;;;;;;;5.73;2.20;;;11.30;99.90;;;;;;5001675;28;20447;-26
2023/11/24 05:14:53;;;;;;;6.20;2.10;;;11.30;99.90;;;;;;5004001;28;20474;-27
2023/11/24 05:17:19;;;;;;;3.63;2.13;;;11.30;99.90;;;;;;4988028;28;20431;-27
2023/11/24 05:19:48;;;;;;;3.90;2.07;;;11.30;99.90;;;;;;4971982;28;20225;-27
2023/11/24 05:22:14;;;;;;;6.10;2.10;;;11.30;99.90;;;;;;4967519;28;20463;-27
2023/11/24 05:24:40;;;;;;;4.23;2.47;;;11.30;99.90;;;;;;4959289;28;21004;-27
2023/11/24 05:27:07;;;;;;;4.72;2.63;;;11.30;99.90;;;;;;4984002;28;20517;-28
2023/11/24 05:29:34;;;;;;;3.87;2.03;;;11.30;99.90;;;;;;5010753;28;20185;-28
2023/11/24 05:32:00;;;;;;;4.20;1.70;;;11.30;99.90;;;;;;5004974;28;20447;-26
2023/11/24 05:34:26;;;;;;;4.50;2.00;;;11.30;99.90;;;;;;4998503;28;20517;-28
2023/11/24 05:36:52;;;;;;;7.88;2.67;;;11.30;99.90;;;;;;5005352;28;20463;-28
2023/11/24 05:39:18;;;;;;;5.60;2.10;;;11.30;99.90;;;;;;5012726;28;20199;-27
2023/11/24 05:41:47;;;;;;;4.73;1.97;;;11.30;99.90;;;;;;5005136;28;20424;-28
2023/11/24 05:44:16;;;;;;;3.47;1.87;;;11.30;99.90;;;;;;5013248;28;20471;-28
2023/11/24 05:46:42;;;;;;;8.00;2.03;;;11.30;99.90;;;;;;5020887;28;20420;-25
2023/11/24 05:49:09;;;;;;;5.33;2.20;;;11.20;99.90;;;;;;4971272;28;20447;-29
2023/11/24 05:51:38;;;;;;;5.60;1.73;;;11.20;99.90;;;;;;5021203;28;20424;-27
2023/11/24 05:54:05;;;;;;;3.40;1.77;;;11.20;99.90;;;;;;5021947;28;20498;-26
2023/11/24 05:56:34;;;;;;;3.78;2.15;;;11.20;99.90;;;;;;5003539;28;20441;-26
2023/11/24 05:59:03;;;;;;;4.03;2.30;;;11.20;99.90;;;;;;5003753;28;20193;-29
2023/11/24 06:01:29;;;;;;;5.53;2.23;;;11.20;99.90;;;;;;5020827;28;20434;-26
2023/11/24 06:03:55;;;;;;;3.60;2.07;;;11.30;99.90;;;;;;4986850;28;20484;-28
2023/11/24 06:06:30;;;;;;;2.80;1.87;;;11.20;99.90;;;;;;5020818;28;20442;-27
2023/11/24 06:08:59;;;;;;;4.43;2.10;;;11.20;99.90;;;;;;5023105;28;20436;-28
2023/11/24 06:11:28;;;;;;;3.43;2.17;;;11.20;99.90;;;;;;5024076;28;20522;-27
2023/11/24 06:13:56;;;;;;;4.30;2.10;;;11.20;99.90;;;;;;5023923;28;20956;-28
2023/11/24 06:16:25;;;;;;;5.05;2.22;;;11.20;99.90;;;;;;5023870;28;20423;-27
2023/11/24 06:18:57;;;;;;;4.53;2.00;;;11.20;99.90;;;;;;5004020;28;20289;-27
2023/11/24 06:21:23;;;;;;;5.90;2.60;;;11.20;99.90;;;;;;5005019;28;20522;-27
2023/11/24 06:23:51;;;;;;;6.50;2.97;;;11.20;99.90;;;;;;5004516;28;21163;-26
2023/11/24 06:26:18;;;;;;;5.28;2.45;;;11.20;99.90;;;;;;5007265;28;20518;-29
2023/11/24 06:28:46;;;;;;;6.03;2.53;;;11.20;99.90;;;;;;5009604;28;20187;-28
2023/11/24 06:31:16;;;;;;;9.27;2.43;;;11.20;99.90;;;;;;4993887;28;21367;-27
2023/11/24 06:33:44;;;;;;;6.87;3.03;;;11.20;99.90;;;;;;5005692;28;20982;-26
2023/11/24 06:36:14;;;;;;;8.43;2.70;;;11.20;99.90;;;;;;4994747;28;20454;-27
2023/11/24 06:38:40;;;;;;;5.80;2.27;;;11.10;99.90;;;;;;4993077;28;20437;-28
2023/11/24 06:41:07;;;;;;;4.73;2.30;;;11.10;99.90;;;;;;5026178;28;20628;-28
2023/11/24 06:43:33;;;;;;;7.50;2.40;;;11.10;99.90;;;;;;5007276;28;20484;-26
2023/11/24 06:46:01;;;;;;;2.85;1.60;;;11.10;99.90;;;;;;5025054;28;20427;-27
2023/11/24 06:48:27;;;;;;;4.60;2.30;;;11.10;99.90;;;;;;4990175;28;20216;-26
2023/11/24 06:50:53;;;;;;;5.00;2.13;;;11.10;99.90;;;;;;5023305;28;20763;-26
2023/11/24 06:53:19;;;;;;;6.00;2.40;;;11.20;99.90;;;;;;5006157;28;20434;-27
2023/11/24 06:55:48;;;;;;;7.13;2.50;;;11.10;99.90;;;;;;5004339;28;21032;-27
2023/11/24 06:58:14;;;;;;;5.27;1.80;;;11.20;99.90;;;;;;5023243;28;20422;-28
2023/11/24 07:00:40;;;;;;;5.70;2.70;;;11.10;99.90;;;;;;5005615;28;20530;-27
2023/11/24 07:03:06;;;;;;;5.43;2.20;;;11.10;99.90;;;;;;5006811;28;20442;-27
2023/11/24 07:05:32;;;;;;;5.10;1.90;;;11.10;99.90;;;;;;5024759;28;20933;-27
2023/11/24 07:08:01;;;;;;;9.90;2.63;;;11.10;99.90;;;;;;5007227;28;20533;-29
2023/11/24 07:10:30;;;;;;;6.37;2.40;;;11.00;99.90;;;;;;5007164;28;20438;-28
2023/11/24 07:12:56;;;;;;;10.83;2.20;;;11.00;99.90;;;;;;5024509;28;20450;-25
2023/11/24 07:15:28;;;;;;;3.53;1.90;;;11.00;99.90;;;;;;5025620;28;20478;-27
2023/11/24 07:17:54;;;;;;;3.80;1.73;;;11.00;99.90;;;;;;5024690;28;20441;-28
2023/11/24 07:20:21;;;;;;;5.47;2.33;;;11.00;99.90;;;;;;5023945;28;20839;-28
2023/11/24 07:22:48;;;;;;;3.97;2.50;;;11.00;99.90;;;;;;5005994;28;20592;-27
2023/11/24 07:25:14;;;;;;;7.53;2.50;;;11.00;99.90;;;;;;5024626;28;20490;-28
2023/11/24 07:27:44;;;;;;;5.23;2.40;;;11.00;99.90;;;;;;5005244;28;21204;-27
2023/11/24 07:30:11;;;;;;;5.60;2.13;;;11.00;99.90;;;;;;5008179;28;21053;-27
2023/11/24 07:32:37;;;;;;;5.50;2.83;;;11.00;99.90;;;;;;5026213;28;20571;-27
2023/11/24 07:35:04;;;;;;;3.33;1.90;;;11.10;99.90;;;;;;5005268;28;20718;-29
2023/11/24 07:37:30;;;;;;;5.72;2.15;;;11.10;99.90;;;;;;4986548;28;21286;-27
2023/11/24 07:39:56;;;;;;;2.87;1.93;;;11.10;99.90;;;;;;5023198;28;20194;-26
2023/11/24 07:42:22;;;;;;;4.47;1.87;;;11.10;99.90;;;;;;5022866;28;20453;-26
2023/11/24 07:44:49;;;;;;;3.10;2.03;;;11.10;99.90;;;;;;5001468;28;20533;-26
2023/11/24 07:47:18;;;;;;;2.33;1.73;;;11.00;99.90;;;;;;5022361;28;20437;-28
2023/11/24 07:49:45;;;;;;;4.65;1.80;;;11.00;99.90;;;;;;5022477;28;20466;-26
2023/11/24 07:52:11;;;;;;;5.07;1.90;;;11.00;99.90;;;;;;5004715;28;20193;-26
2023/11/24 07:54:40;;;;;;;5.57;2.40;;;11.00;99.90;;;;;;5022333;28;20425;-26
2023/11/24 07:57:09;;;;;;;4.50;2.10;;;11.00;99.90;;;;;;4988465;28;20427;-26
2023/11/24 07:59:37;;;;;;;3.03;1.60;;;11.00;99.90;;;;;;5004338;28;20483;-26
2023/11/24 08:02:04;;;;;;;5.43;2.00;;;11.00;99.90;;;;;;5003609;28;20453;-24
2023/11/24 08:04:30;;;;;;;7.40;2.10;;;10.90;99.90;;;;;;5004257;28;20484;-27
2023/11/24 08:06:56;;;;;;;3.53;2.20;;;10.90;99.90;;;;;;5003019;28;20429;-27
2023/11/24 08:09:22;;;;;;;2.78;2.08;;;10.90;99.90;;;;;;5022083;28;20423;-27
2023/11/24 08:11:50;;;;;;;5.80;2.40;;;10.90;99.90;;;;;;5020409;28;20278;-27
2023/11/24 08:14:23;;;;;;;6.07;1.90;;;11.00;99.90;;;;;;4988295;28;20512;-28
2023/11/24 08:16:51;;;;;;;5.73;1.87;;;10.90;99.90;;;;;;5021391;28;21008;-27
2023/11/24 08:19:22;;;;;;;2.90;1.63;;;10.90;99.90;;;;;;5022164;28;20429;-28
2023/11/24 08:21:50;;;;;;;3.08;1.80;;;10.90;99.90;;;;;;4991947;28;20437;-29
2023/11/24 08:24:17;;;;;;;6.30;2.17;;;10.90;99.90;;;;;;5018115;28;20295;-26
2023/11/24 08:26:45;;;;;;;4.40;2.10;;;11.00;99.90;;;;;;5004046;28;21274;-27
2023/11/24 08:29:15;;;;;;;5.30;2.20;;;11.00;99.90;;;;;;5004728;28;20419;-25
2023/11/24 08:31:43;;;;;;;5.03;1.70;;;10.90;99.90;;;;;;4988920;28;20427;-27
2023/11/24 08:34:09;;;;;;;6.93;2.70;;;10.90;99.90;;;;;;4987931;28;20460;-26
2023/11/24 08:36:35;;;;;;;7.17;2.30;;;10.90;99.90;;;;;;5024250;28;20447;-29
2023/11/24 08:39:08;;;;;;;2.60;1.80;;;10.80;99.90;;;;;;5024186;28;20460;-28
2023/11/24 08:41:34;;;;;;;6.87;2.07;;;10.90;99.90;;;;;;5004486;28;20524;-26
2023/11/24 08:44:00;;;;;;;2.33;1.70;;;10.80;99.90;;;;;;5004285;28;20564;-26
2023/11/24 08:46:26;;;;;;;4.10;2.40;;;10.90;99.90;;;;;;5003756;28;20506;-26
2023/11/24 08:48:55;;;;;;;4.00;1.70;;;10.80;99.90;;;;;;5021186;28;20407;-27
2023/11/24 08:51:25;;;;;;;5.63;2.47;;;10.80;99.90;;;;;;5003648;28;20487;-27
2023/11/24 08:53:53;;;;;;;2.90;2.07;;;10.80;99.90;;;;;;5021855;28;20512;-25
2023/11/24 08:56:22;;;;;;;5.30;2.20;;;10.80;99.90;;;;;;4983130;28;20427;-27
2023/11/24 08:58:49;;;;;;;4.00;1.90;;;10.80;99.90;;;;;;4988472;28;20468;-26
2023/11/24 09:01:15;;;;;;;5.80;1.80;;;10.80;99.90;;;;;;5021267;28;20428;-27
2023/11/24 09:03:41;;;;;;;5.17;1.97;;;10.80;99.90;;;;;;5005062;28;20517;-26
2023/11/24 09:06:07;;;;;;;2.57;1.60;;;10.80;99.90;;;;;;5021356;28;20456;-27
2023/11/24 09:08:35;;;;;;;4.20;2.03;;;10.80;99.90;;;;;;5002055;28;20538;-28
2023/11/24 09:11:04;;;;;;;1.87;1.50;;;10.80;99.90;;;;;;5024696;28;21077;-28
2023/11/24 09:13:35;;;;;;;4.03;1.60;;;10.80;99.90;;;;;;5025195;28;20460;-27
2023/11/24 09:16:02;;;;;;;3.70;1.97;;;10.80;99.90;;;;;;5006210;28;20426;-26
2023/11/24 09:18:30;;;;;;;6.40;2.00;;;10.80;99.90;;;;;;5004540;28;21254;-26
2023/11/24 09:21:00;;;;;;;3.00;1.70;;;10.80;99.90;;;;;;5024221;28;20495;-26
2023/11/24 09:23:29;;;;;;;7.82;2.95;;;10.80;99.90;;;;;;5005065;28;21018;-27
2023/11/24 09:25:55;;;;;;;4.05;2.30;;;10.80;99.90;;;;;;5022868;28;20244;-26
2023/11/24 09:28:25;;;;;;;3.93;2.43;;;10.80;99.90;;;;;;4988924;28;20214;-26
2023/11/24 09:30:51;;;;;;;4.40;1.90;;;10.80;99.90;;;;;;5004037;28;20456;-28
2023/11/24 09:33:21;;;;;;;4.10;1.90;;;10.90;99.90;;;;;;5020375;28;20518;-26
2023/11/24 09:35:49;;;;;;;4.77;1.90;;;10.90;99.90;;;;;;5003727;28;20195;-29
2023/11/24 09:38:15;;;;;;;3.73;1.60;;;10.90;99.90;;;;;;5019824;28;21347;-23
2023/11/24 09:40:46;;;;;;;4.53;1.90;;;10.90;99.90;;;;;;5004111;28;20550;-26
2023/11/24 09:43:13;;;;;;;2.90;2.13;;;10.90;99.90;;;;;;5024063;28;20481;-26
2023/11/24 09:45:41;;;;;;;5.97;2.40;;;10.80;99.90;;;;;;5015204;28;20794;-26
2023/11/24 09:48:11;;;;;;;3.00;1.77;;;10.80;99.90;;;;;;5011498;28;20453;-27
2023/11/24 09:50:39;;;;;;;5.03;1.97;;;10.80;99.90;;;;;;5012018;28;21372;-27
2023/11/24 09:53:08;;;;;;;3.40;1.97;;;10.80;99.90;;;;;;4976448;28;20509;-26
2023/11/24 09:55:34;;;;;;;4.73;2.33;;;10.80;99.90;;;;;;5005509;28;20480;-27
2023/11/24 09:58:00;;;;;;;3.10;1.90;;;10.80;99.90;;;;;;4985549;28;20444;-26
2023/11/24 10:00:33;;;;;;;4.35;1.70;;;10.70;99.90;;;;;;4940276;28;21490;-26
2023/11/24 10:03:03;;;;;;;4.45;2.30;;;10.80;99.90;;;;;;5002749;28;20205;-27
2023/11/24 10:05:29;;;;;;;5.30;2.20;;;10.80;99.90;;;;;;5000958;28;20206;-28
2023/11/24 10:08:00;;;;;;;3.07;1.83;;;10.80;99.90;;;;;;4976306;28;20446;-24
2023/11/24 10:10:27;;;;;;;1.40;1.30;;;10.80;99.90;;;;;;5016232;28;21306;-26
2023/11/24 10:13:01;;;;;;;2.20;1.60;;;10.80;99.90;;;;;;4993263;28;20454;-28
2023/11/24 10:15:30;;;;;;;5.47;2.00;;;10.80;99.90;;;;;;4983517;28;21001;-28
2023/11/24 10:17:57;;;;;;;3.27;1.77;;;10.80;99.90;;;;;;5001881;28;20520;-27
2023/11/24 10:20:23;;;;;;;2.27;1.70;;;10.80;99.90;;;;;;4985370;28;20446;-26
2023/11/24 10:22:50;;;;;;;5.40;1.57;;;10.80;99.90;;;;;;4986168;28;20474;-26
2023/11/24 10:25:33;;;;;;;2.92;1.80;;;10.80;99.90;;;;;;5000287;28;20476;-26
2023/11/24 10:28:00;;;;;;;4.10;1.67;;;10.80;99.90;;;;;;4989587;28;20242;-28
2023/11/24 10:30:26;;;;;;;2.60;1.77;;;10.80;99.90;;;;;;4966224;28;20524;-27
2023/11/24 10:32:52;;;;;;;2.00;1.80;;;10.70;99.90;;;;;;5001945;28;20518;-27
2023/11/24 10:35:26;;;;;;;2.97;2.37;;;10.80;99.90;;;;;;4984561;28;21333;-27
2023/11/24 10:37:58;;;;;;;1.63;1.43;;;10.70;99.90;;;;;;4999132;28;20434;-26
2023/11/24 10:40:26;;;;;;;2.23;1.90;;;10.70;99.90;;;;;;5003460;28;20453;-26
2023/11/24 10:42:54;;;;;;;3.20;1.70;;;10.70;99.90;;;;;;4986028;28;20452;-26
2023/11/24 10:45:22;;;;;;;2.17;1.50;;;10.70;99.90;;;;;;4995187;28;20550;-27
2023/11/24 10:48:01;;;;;;;5.30;1.80;;;10.70;99.90;;;;;;5003027;28;20203;-28
2023/11/24 10:50:28;;;;;;;2.00;1.57;;;10.80;99.90;;;;;;5019924;28;20419;-27
2023/11/24 10:53:25;;;;;;;1.80;1.60;;;10.80;99.90;;;;;;5020026;28;20441;-27
2023/11/24 10:55:54;;;;;;;1.88;1.70;;;10.80;99.90;;;;;;5017072;28;20420;-26
2023/11/24 10:58:21;;;;;;;2.00;1.80;;;10.80;99.90;;;;;;5002131;28;20200;-27
2023/11/24 11:00:51;;;;;;;2.10;1.53;;;10.80;99.90;;;;;;4985723;28;20962;-25
2023/11/24 11:03:17;;;;;;;2.03;1.70;;;10.80;99.90;;;;;;5001671;28;20546;-26
2023/11/24 11:05:52;;;;;;;2.73;1.70;;;10.80;99.90;;;;;;5000992;28;21191;-26
2023/11/24 11:08:34;;;;;;;4.30;2.10;;;10.80;99.90;;;;;;5015355;28;20472;-26
2023/11/24 11:11:12;;;;;;;2.80;1.80;;;10.80;99.90;;;;;;5018119;28;20412;-27
2023/11/24 11:13:43;;;;;;;4.23;2.40;;;10.80;99.90;;;;;;5005220;28;20444;-26
2023/11/24 11:16:14;;;;;;;2.07;1.70;;;10.70;99.90;;;;;;4994881;28;20436;-25
2023/11/24 11:18:43;;;;;;;6.57;2.20;;;10.70;99.90;;;;;;5007217;28;20467;-27
2023/11/24 11:21:31;;;;;;;4.87;1.90;;;10.70;99.90;;;;;;5008342;28;20539;-26
2023/11/24 11:24:21;;;;;;;3.22;2.10;;;10.70;99.90;;;;;;5007176;28;20691;-28
2023/11/24 11:26:49;;;;;;;5.67;3.10;;;10.70;99.90;;;;;;5007190;28;20182;-27
2023/11/24 11:29:18;;;;;;;4.87;2.50;;;10.70;99.90;;;;;;5007142;28;20426;-27
2023/11/24 11:31:55;;;;;;;3.57;1.90;;;10.70;99.90;;;;;;5027302;28;20441;-27
2023/11/24 11:34:32;;;;;;;3.73;1.97;;;10.70;99.90;;;;;;5029776;28;20487;-26
2023/11/24 11:37:11;;;;;;;4.87;2.37;;;10.70;99.90;;;;;;5026340;28;20827;-28
2023/11/24 11:39:57;;;;;;;3.90;1.80;;;10.70;99.90;;;;;;5020148;28;20444;-26
2023/11/24 11:42:28;;;;;;;7.10;2.00;;;10.70;99.90;;;;;;5023369;28;20541;-27
2023/11/24 11:44:56;;;;;;;4.43;2.00;;;10.70;99.90;;;;;;5025831;28;20464;-26
2023/11/24 11:47:35;;;;;;;2.83;2.20;;;10.60;99.90;;;;;;5006076;28;20427;-27
2023/11/24 11:50:07;;;;;;;6.87;2.20;;;10.60;99.90;;;;;;4989458;28;20521;-27
2023/11/24 11:52:35;;;;;;;7.03;1.60;;;10.60;99.90;;;;;;4975684;28;20449;-26
2023/11/24 11:55:02;;;;;;;5.07;2.17;;;10.60;99.90;;;;;;5022996;28;20427;-26
2023/11/24 11:57:28;;;;;;;4.40;1.90;;;10.70;99.90;;;;;;4988792;28;20193;-26
2023/11/24 11:59:55;;;;;;;4.53;2.37;;;10.70;99.90;;;;;;4992193;28;20441;-25
2023/11/24 12:02:23;;;;;;;5.00;2.20;;;10.70;99.90;;;;;;5004999;28;21045;-26
2023/11/24 12:04:49;;;;;;;3.10;2.00;;;10.70;99.90;;;;;;5018306;28;20251;-26
2023/11/24 12:07:23;;;;;;;2.92;1.95;;;10.70;99.90;;;;;;5002029;28;20442;-27
2023/11/24 12:09:51;;;;;;;3.08;1.65;;;10.80;99.90;;;;;;5022253;28;20743;-27
2023/11/24 12:12:19;;;;;;;1.67;1.50;;;10.80;99.60;;;;;;5003766;28;20237;-26
2023/11/24 12:14:48;;;;;;;2.37;1.70;;;10.80;99.40;;;;;;5021835;28;20906;-28
2023/11/24 12:17:14;;;;;;;3.13;1.37;;;10.80;99.30;;;;;;5017411;28;20449;-27
2023/11/24 12:19:41;;;;;;;2.87;1.40;;;10.70;99.20;;;;;;5005152;28;20433;-26
2023/11/24 12:22:09;;;;;;;1.77;1.60;;;10.70;99.40;;;;;;5027173;28;20489;-28
2023/11/24 12:24:36;;;;;;;3.23;1.80;;;10.70;99.60;;;;;;5004979;28;20476;-26
2023/11/24 12:27:03;;;;;;;4.80;1.90;;;10.70;99.70;;;;;;5021000;28;20524;-27
2023/11/24 12:29:36;;;;;;;3.83;1.60;;;10.60;99.80;;;;;;5052430;22;20988;-30
2023/11/24 12:32:09;;;;;;;3.77;1.60;;;10.60;99.60;;;;;;5040116;28;20436;-31
2023/11/24 12:34:41;;;;;;;4.00;2.00;;;10.60;99.50;;;;;;5039930;28;20477;-28
2023/11/24 12:37:10;;;;;;;3.00;1.85;;;10.60;99.90;;;;;;5037617;28;20810;-28
2023/11/24 12:39:40;;;;;;;2.03;1.57;;;10.60;99.60;;;;;;5041872;28;20616;-28
2023/11/24 12:42:10;;;;;;;2.20;1.60;;;10.70;99.60;;;;;;5017981;28;20439;-28
2023/11/24 12:44:38;;;;;;;5.37;1.87;;;10.70;99.70;;;;;;5039146;28;20832;-29
2023/11/24 12:47:16;;;;;;;4.97;1.98;;;10.70;99.70;;;;;;5041591;28;20435;-29
2023/11/24 12:49:59;;;;;;;3.00;1.83;;;10.70;99.70;;;;;;5041785;28;20595;-28
2023/11/24 12:52:29;;;;;;;4.70;2.13;;;10.70;99.60;;;;;;5039402;28;20442;-30